sensor_id;sensor_type;location;lat;lon;timestamp;P1;durP1;ratioP1;P2;durP2;ratioP2
60292;SDS011;52402;52.670;6.750;2022-08-01T00:01:33;14.50;;;10.32;;
60292;SDS011;52402;52.670;6.750;2022-08-01T00:03:59;16.63;;;11.15;;
60292;SDS011;52402;52.670;6.750;2022-08-01T00:06:25;13.75;;;10.07;;
60292;SDS011;52402;52.670;6.750;2022-08-01T00:08:51;14.32;;;11.35;;
60292;SDS011;52402;52.670;6.750;2022-08-01T00:11:17;15.32;;;10.93;;
60292;SDS011;52402;52.670;6.750;2022-08-01T00:13:42;13.40;;;11.18;;
60292;SDS011;52402;52.670;6.750;2022-08-01T00:16:08;15.50;;;11.48;;
60292;SDS011;52402;52.670;6.750;2022-08-01T00:18:33;13.27;;;10.63;;
60292;SDS011;52402;52.670;6.750;2022-08-01T00:21:00;13.18;;;10.95;;
60292;SDS011;52402;52.670;6.750;2022-08-01T00:23:27;17.67;;;11.75;;
60292;SDS011;52402;52.670;6.750;2022-08-01T00:25:53;14.85;;;11.60;;
60292;SDS011;52402;52.670;6.750;2022-08-01T00:28:19;15.48;;;12.70;;
60292;SDS011;52402;52.670;6.750;2022-08-01T00:30:45;14.15;;;10.95;;
60292;SDS011;52402;52.670;6.750;2022-08-01T00:33:10;12.27;;;10.93;;
60292;SDS011;52402;52.670;6.750;2022-08-01T00:35:36;16.83;;;12.60;;
60292;SDS011;52402;52.670;6.750;2022-08-01T00:38:02;15.82;;;12.23;;
60292;SDS011;52402;52.670;6.750;2022-08-01T00:40:28;12.75;;;10.80;;
60292;SDS011;52402;52.670;6.750;2022-08-01T00:42:53;15.68;;;12.65;;
60292;SDS011;52402;52.670;6.750;2022-08-01T00:45:20;19.10;;;13.30;;
60292;SDS011;52402;52.670;6.750;2022-08-01T00:47:46;26.88;;;15.63;;
60292;SDS011;52402;52.670;6.750;2022-08-01T00:50:14;17.00;;;12.25;;
60292;SDS011;52402;52.670;6.750;2022-08-01T00:52:40;18.73;;;14.93;;
60292;SDS011;52402;52.670;6.750;2022-08-01T00:55:07;17.63;;;13.75;;
60292;SDS011;52402;52.670;6.750;2022-08-01T00:57:34;19.33;;;14.32;;
60292;SDS011;52402;52.670;6.750;2022-08-01T01:00:01;21.42;;;15.13;;
60292;SDS011;52402;52.670;6.750;2022-08-01T01:02:29;16.92;;;14.32;;
60292;SDS011;52402;52.670;6.750;2022-08-01T01:04:55;19.60;;;14.70;;
60292;SDS011;52402;52.670;6.750;2022-08-01T01:12:34;17.60;;;15.13;;
60292;SDS011;52402;52.670;6.750;2022-08-01T01:15:26;18.88;;;15.20;;
60292;SDS011;52402;52.670;6.750;2022-08-01T01:17:57;25.42;;;18.08;;
60292;SDS011;52402;52.670;6.750;2022-08-01T01:21:04;19.48;;;15.25;;
60292;SDS011;52402;52.670;6.750;2022-08-01T01:26:43;19.42;;;15.48;;
60292;SDS011;52402;52.670;6.750;2022-08-01T01:29:40;22.40;;;17.27;;
60292;SDS011;52402;52.670;6.750;2022-08-01T01:32:28;18.17;;;15.02;;
60292;SDS011;52402;52.670;6.750;2022-08-01T01:34:59;19.08;;;14.85;;
60292;SDS011;52402;52.670;6.750;2022-08-01T01:37:34;18.25;;;14.52;;
60292;SDS011;52402;52.670;6.750;2022-08-01T01:40:03;19.17;;;15.35;;
60292;SDS011;52402;52.670;6.750;2022-08-01T01:42:30;15.25;;;13.18;;
60292;SDS011;52402;52.670;6.750;2022-08-01T01:44:58;19.02;;;14.68;;
60292;SDS011;52402;52.670;6.750;2022-08-01T01:47:31;17.02;;;13.73;;
60292;SDS011;52402;52.670;6.750;2022-08-01T01:49:58;21.55;;;15.82;;
60292;SDS011;52402;52.670;6.750;2022-08-01T01:52:25;19.10;;;15.60;;
60292;SDS011;52402;52.670;6.750;2022-08-01T01:54:52;19.35;;;14.60;;
60292;SDS011;52402;52.670;6.750;2022-08-01T01:57:20;15.70;;;13.60;;
60292;SDS011;52402;52.670;6.750;2022-08-01T01:59:47;22.15;;;15.50;;
60292;SDS011;52402;52.670;6.750;2022-08-01T02:02:16;16.40;;;13.73;;
60292;SDS011;52402;52.670;6.750;2022-08-01T02:04:44;16.05;;;13.27;;
60292;SDS011;52402;52.670;6.750;2022-08-01T02:07:12;16.98;;;14.00;;
60292;SDS011;52402;52.670;6.750;2022-08-01T02:09:44;20.75;;;14.27;;
60292;SDS011;52402;52.670;6.750;2022-08-01T02:12:12;17.38;;;14.65;;
60292;SDS011;52402;52.670;6.750;2022-08-01T02:14:40;17.38;;;14.02;;
60292;SDS011;52402;52.670;6.750;2022-08-01T02:19:41;16.90;;;13.50;;
60292;SDS011;52402;52.670;6.750;2022-08-01T02:22:12;16.42;;;13.40;;
60292;SDS011;52402;52.670;6.750;2022-08-01T02:24:50;14.98;;;13.07;;
60292;SDS011;52402;52.670;6.750;2022-08-01T02:27:33;15.70;;;12.48;;
60292;SDS011;52402;52.670;6.750;2022-08-01T02:30:07;20.05;;;14.07;;
60292;SDS011;52402;52.670;6.750;2022-08-01T02:33:22;18.92;;;13.68;;
60292;SDS011;52402;52.670;6.750;2022-08-01T02:35:41;18.55;;;14.88;;
60292;SDS011;52402;52.670;6.750;2022-08-01T02:38:12;17.75;;;14.27;;
60292;SDS011;52402;52.670;6.750;2022-08-01T02:40:42;21.80;;;14.90;;
60292;SDS011;52402;52.670;6.750;2022-08-01T02:43:10;19.93;;;15.13;;
60292;SDS011;52402;52.670;6.750;2022-08-01T02:45:43;15.68;;;12.82;;
60292;SDS011;52402;52.670;6.750;2022-08-01T02:48:13;20.23;;;14.23;;
60292;SDS011;52402;52.670;6.750;2022-08-01T02:50:42;17.65;;;14.43;;
60292;SDS011;52402;52.670;6.750;2022-08-01T02:53:11;14.48;;;12.95;;
60292;SDS011;52402;52.670;6.750;2022-08-01T02:55:38;18.02;;;13.38;;
60292;SDS011;52402;52.670;6.750;2022-08-01T02:58:06;14.65;;;12.95;;
60292;SDS011;52402;52.670;6.750;2022-08-01T03:00:33;12.70;;;11.20;;
60292;SDS011;52402;52.670;6.750;2022-08-01T03:03:00;12.77;;;11.23;;
60292;SDS011;52402;52.670;6.750;2022-08-01T03:05:28;11.57;;;10.23;;
60292;SDS011;52402;52.670;6.750;2022-08-01T03:07:55;10.95;;;9.25;;
60292;SDS011;52402;52.670;6.750;2022-08-01T03:10:22;7.35;;;6.22;;
60292;SDS011;52402;52.670;6.750;2022-08-01T03:12:49;8.07;;;5.82;;
60292;SDS011;52402;52.670;6.750;2022-08-01T03:15:15;8.73;;;6.72;;
60292;SDS011;52402;52.670;6.750;2022-08-01T03:17:43;7.75;;;5.95;;
60292;SDS011;52402;52.670;6.750;2022-08-01T03:20:10;8.10;;;5.15;;
60292;SDS011;52402;52.670;6.750;2022-08-01T03:22:39;6.75;;;5.45;;
60292;SDS011;52402;52.670;6.750;2022-08-01T03:25:07;6.00;;;4.60;;
60292;SDS011;52402;52.670;6.750;2022-08-01T03:27:36;6.38;;;5.07;;
60292;SDS011;52402;52.670;6.750;2022-08-01T03:30:03;6.35;;;4.80;;
60292;SDS011;52402;52.670;6.750;2022-08-01T03:32:30;6.82;;;5.30;;
60292;SDS011;52402;52.670;6.750;2022-08-01T03:34:56;6.45;;;5.28;;
60292;SDS011;52402;52.670;6.750;2022-08-01T03:37:26;8.98;;;5.80;;
60292;SDS011;52402;52.670;6.750;2022-08-01T03:40:17;7.07;;;5.60;;
60292;SDS011;52402;52.670;6.750;2022-08-01T03:43:02;6.32;;;5.47;;
60292;SDS011;52402;52.670;6.750;2022-08-01T03:45:35;6.85;;;5.47;;
60292;SDS011;52402;52.670;6.750;2022-08-01T03:48:05;7.57;;;5.43;;
60292;SDS011;52402;52.670;6.750;2022-08-01T03:50:43;8.73;;;6.72;;
60292;SDS011;52402;52.670;6.750;2022-08-01T03:53:12;9.15;;;7.00;;
60292;SDS011;52402;52.670;6.750;2022-08-01T03:55:41;9.30;;;6.50;;
60292;SDS011;52402;52.670;6.750;2022-08-01T03:58:08;8.75;;;6.50;;
60292;SDS011;52402;52.670;6.750;2022-08-01T04:00:37;7.88;;;6.20;;
60292;SDS011;52402;52.670;6.750;2022-08-01T04:03:04;8.23;;;6.45;;
60292;SDS011;52402;52.670;6.750;2022-08-01T04:05:32;8.07;;;5.68;;
60292;SDS011;52402;52.670;6.750;2022-08-01T04:07:58;7.93;;;6.05;;
60292;SDS011;52402;52.670;6.750;2022-08-01T04:10:25;9.85;;;6.68;;
60292;SDS011;52402;52.670;6.750;2022-08-01T04:12:51;8.43;;;6.10;;
60292;SDS011;52402;52.670;6.750;2022-08-01T04:15:17;6.55;;;5.70;;
60292;SDS011;52402;52.670;6.750;2022-08-01T04:17:45;8.30;;;5.72;;
60292;SDS011;52402;52.670;6.750;2022-08-01T04:20:10;8.00;;;6.20;;
60292;SDS011;52402;52.670;6.750;2022-08-01T04:22:36;7.03;;;5.55;;
60292;SDS011;52402;52.670;6.750;2022-08-01T04:25:04;8.32;;;5.32;;
60292;SDS011;52402;52.670;6.750;2022-08-01T04:27:36;7.30;;;4.40;;
60292;SDS011;52402;52.670;6.750;2022-08-01T04:30:05;9.50;;;4.85;;
60292;SDS011;52402;52.670;6.750;2022-08-01T04:32:35;7.88;;;4.40;;
60292;SDS011;52402;52.670;6.750;2022-08-01T04:35:04;7.30;;;4.03;;
60292;SDS011;52402;52.670;6.750;2022-08-01T04:37:33;8.07;;;4.60;;
60292;SDS011;52402;52.670;6.750;2022-08-01T04:40:02;7.63;;;4.60;;
60292;SDS011;52402;52.670;6.750;2022-08-01T04:42:31;7.00;;;4.60;;
60292;SDS011;52402;52.670;6.750;2022-08-01T04:44:58;8.05;;;4.43;;
60292;SDS011;52402;52.670;6.750;2022-08-01T04:47:24;7.28;;;4.35;;
60292;SDS011;52402;52.670;6.750;2022-08-01T04:49:52;8.60;;;4.90;;
60292;SDS011;52402;52.670;6.750;2022-08-01T04:52:19;10.77;;;4.78;;
60292;SDS011;52402;52.670;6.750;2022-08-01T04:54:47;7.85;;;4.45;;
60292;SDS011;52402;52.670;6.750;2022-08-01T04:57:13;8.07;;;4.00;;
60292;SDS011;52402;52.670;6.750;2022-08-01T04:59:41;6.90;;;4.10;;
60292;SDS011;52402;52.670;6.750;2022-08-01T05:02:17;6.13;;;4.20;;
60292;SDS011;52402;52.670;6.750;2022-08-01T05:04:44;9.35;;;4.32;;
60292;SDS011;52402;52.670;6.750;2022-08-01T05:07:10;10.65;;;4.47;;
60292;SDS011;52402;52.670;6.750;2022-08-01T05:09:37;7.50;;;4.03;;
60292;SDS011;52402;52.670;6.750;2022-08-01T05:12:08;8.77;;;4.00;;
60292;SDS011;52402;52.670;6.750;2022-08-01T05:14:41;8.43;;;4.40;;
60292;SDS011;52402;52.670;6.750;2022-08-01T05:17:07;7.18;;;4.25;;
60292;SDS011;52402;52.670;6.750;2022-08-01T05:19:39;9.43;;;4.50;;
60292;SDS011;52402;52.670;6.750;2022-08-01T05:22:07;10.55;;;4.25;;
60292;SDS011;52402;52.670;6.750;2022-08-01T05:24:38;7.15;;;4.03;;
60292;SDS011;52402;52.670;6.750;2022-08-01T05:27:04;6.32;;;3.67;;
60292;SDS011;52402;52.670;6.750;2022-08-01T05:29:33;7.25;;;3.75;;
60292;SDS011;52402;52.670;6.750;2022-08-01T05:32:00;9.75;;;4.55;;
60292;SDS011;52402;52.670;6.750;2022-08-01T05:34:26;8.60;;;3.95;;
60292;SDS011;52402;52.670;6.750;2022-08-01T05:36:52;10.02;;;3.60;;
60292;SDS011;52402;52.670;6.750;2022-08-01T05:39:18;10.77;;;4.40;;
60292;SDS011;52402;52.670;6.750;2022-08-01T05:41:44;8.70;;;3.75;;
60292;SDS011;52402;52.670;6.750;2022-08-01T05:44:10;8.73;;;4.30;;
60292;SDS011;52402;52.670;6.750;2022-08-01T05:46:36;9.27;;;3.95;;
60292;SDS011;52402;52.670;6.750;2022-08-01T05:49:02;13.13;;;4.70;;
60292;SDS011;52402;52.670;6.750;2022-08-01T05:51:32;9.15;;;3.97;;
60292;SDS011;52402;52.670;6.750;2022-08-01T05:53:58;9.23;;;4.45;;
60292;SDS011;52402;52.670;6.750;2022-08-01T05:56:24;9.27;;;4.32;;
60292;SDS011;52402;52.670;6.750;2022-08-01T05:58:50;10.25;;;4.88;;
60292;SDS011;52402;52.670;6.750;2022-08-01T06:01:17;9.68;;;4.68;;
60292;SDS011;52402;52.670;6.750;2022-08-01T06:03:43;10.93;;;4.32;;
60292;SDS011;52402;52.670;6.750;2022-08-01T06:06:09;10.20;;;4.43;;
60292;SDS011;52402;52.670;6.750;2022-08-01T06:08:34;9.73;;;4.10;;
60292;SDS011;52402;52.670;6.750;2022-08-01T06:11:01;9.38;;;4.18;;
60292;SDS011;52402;52.670;6.750;2022-08-01T06:13:27;8.60;;;4.00;;
60292;SDS011;52402;52.670;6.750;2022-08-01T06:15:53;8.05;;;3.85;;
60292;SDS011;52402;52.670;6.750;2022-08-01T06:18:22;9.82;;;4.25;;
60292;SDS011;52402;52.670;6.750;2022-08-01T06:20:47;11.25;;;4.28;;
60292;SDS011;52402;52.670;6.750;2022-08-01T06:23:13;10.18;;;4.30;;
60292;SDS011;52402;52.670;6.750;2022-08-01T06:25:40;11.77;;;4.20;;
60292;SDS011;52402;52.670;6.750;2022-08-01T06:28:07;11.55;;;4.43;;
60292;SDS011;52402;52.670;6.750;2022-08-01T06:30:32;10.40;;;4.05;;
60292;SDS011;52402;52.670;6.750;2022-08-01T06:32:58;10.88;;;4.25;;
60292;SDS011;52402;52.670;6.750;2022-08-01T06:35:25;10.73;;;4.20;;
60292;SDS011;52402;52.670;6.750;2022-08-01T06:37:51;13.00;;;4.18;;
60292;SDS011;52402;52.670;6.750;2022-08-01T06:40:17;12.32;;;4.47;;
60292;SDS011;52402;52.670;6.750;2022-08-01T06:42:45;9.20;;;3.88;;
60292;SDS011;52402;52.670;6.750;2022-08-01T06:45:12;11.77;;;3.78;;
60292;SDS011;52402;52.670;6.750;2022-08-01T06:47:38;13.35;;;3.85;;
60292;SDS011;52402;52.670;6.750;2022-08-01T06:50:06;13.20;;;4.13;;
60292;SDS011;52402;52.670;6.750;2022-08-01T06:52:33;11.85;;;4.25;;
60292;SDS011;52402;52.670;6.750;2022-08-01T06:54:59;11.75;;;3.58;;
60292;SDS011;52402;52.670;6.750;2022-08-01T06:57:25;13.60;;;3.35;;
60292;SDS011;52402;52.670;6.750;2022-08-01T06:59:51;15.00;;;4.38;;
60292;SDS011;52402;52.670;6.750;2022-08-01T07:02:17;14.50;;;4.63;;
60292;SDS011;52402;52.670;6.750;2022-08-01T07:04:42;14.88;;;3.88;;
60292;SDS011;52402;52.670;6.750;2022-08-01T07:07:08;13.00;;;3.92;;
60292;SDS011;52402;52.670;6.750;2022-08-01T07:09:33;11.57;;;4.15;;
60292;SDS011;52402;52.670;6.750;2022-08-01T07:12:03;13.32;;;4.30;;
60292;SDS011;52402;52.670;6.750;2022-08-01T07:14:30;13.85;;;3.72;;
60292;SDS011;52402;52.670;6.750;2022-08-01T07:16:55;13.50;;;3.60;;
60292;SDS011;52402;52.670;6.750;2022-08-01T07:19:21;15.63;;;4.50;;
60292;SDS011;52402;52.670;6.750;2022-08-01T07:21:47;14.82;;;4.13;;
60292;SDS011;52402;52.670;6.750;2022-08-01T07:24:13;14.10;;;3.40;;
60292;SDS011;52402;52.670;6.750;2022-08-01T07:26:43;12.80;;;3.72;;
60292;SDS011;52402;52.670;6.750;2022-08-01T07:29:10;14.05;;;4.05;;
60292;SDS011;52402;52.670;6.750;2022-08-01T07:31:36;14.40;;;3.90;;
60292;SDS011;52402;52.670;6.750;2022-08-01T07:34:01;14.68;;;3.83;;
60292;SDS011;52402;52.670;6.750;2022-08-01T07:36:27;15.07;;;4.70;;
60292;SDS011;52402;52.670;6.750;2022-08-01T07:38:53;13.85;;;3.92;;
60292;SDS011;52402;52.670;6.750;2022-08-01T07:41:18;15.25;;;3.92;;
60292;SDS011;52402;52.670;6.750;2022-08-01T07:43:44;11.73;;;3.55;;
60292;SDS011;52402;52.670;6.750;2022-08-01T07:46:09;15.63;;;3.88;;
60292;SDS011;52402;52.670;6.750;2022-08-01T07:48:35;12.93;;;3.83;;
60292;SDS011;52402;52.670;6.750;2022-08-01T07:51:01;13.30;;;3.97;;
60292;SDS011;52402;52.670;6.750;2022-08-01T07:53:27;13.75;;;3.50;;
60292;SDS011;52402;52.670;6.750;2022-08-01T07:55:52;14.65;;;4.28;;
60292;SDS011;52402;52.670;6.750;2022-08-01T07:58:18;14.70;;;4.50;;
60292;SDS011;52402;52.670;6.750;2022-08-01T08:00:44;14.23;;;3.75;;
60292;SDS011;52402;52.670;6.750;2022-08-01T08:03:09;15.57;;;4.50;;
60292;SDS011;52402;52.670;6.750;2022-08-01T08:05:35;14.60;;;3.97;;
60292;SDS011;52402;52.670;6.750;2022-08-01T08:08:02;17.17;;;3.88;;
60292;SDS011;52402;52.670;6.750;2022-08-01T08:10:29;14.68;;;4.70;;
60292;SDS011;52402;52.670;6.750;2022-08-01T08:12:55;16.20;;;3.97;;
60292;SDS011;52402;52.670;6.750;2022-08-01T08:15:21;15.20;;;4.10;;
60292;SDS011;52402;52.670;6.750;2022-08-01T08:17:48;14.00;;;3.78;;
60292;SDS011;52402;52.670;6.750;2022-08-01T08:20:14;13.57;;;4.13;;
60292;SDS011;52402;52.670;6.750;2022-08-01T08:22:40;13.70;;;3.80;;
60292;SDS011;52402;52.670;6.750;2022-08-01T08:25:06;13.25;;;3.78;;
60292;SDS011;52402;52.670;6.750;2022-08-01T08:27:32;12.82;;;3.67;;
60292;SDS011;52402;52.670;6.750;2022-08-01T08:29:58;15.35;;;4.93;;
60292;SDS011;52402;52.670;6.750;2022-08-01T08:32:24;13.75;;;4.13;;
60292;SDS011;52402;52.670;6.750;2022-08-01T08:34:50;15.80;;;4.30;;
60292;SDS011;52402;52.670;6.750;2022-08-01T08:37:15;13.20;;;3.42;;
60292;SDS011;52402;52.670;6.750;2022-08-01T08:39:42;12.10;;;3.90;;
60292;SDS011;52402;52.670;6.750;2022-08-01T08:42:09;14.15;;;4.32;;
60292;SDS011;52402;52.670;6.750;2022-08-01T08:44:36;12.25;;;4.10;;
60292;SDS011;52402;52.670;6.750;2022-08-01T08:47:04;10.98;;;3.22;;
60292;SDS011;52402;52.670;6.750;2022-08-01T08:49:34;13.70;;;3.92;;
60292;SDS011;52402;52.670;6.750;2022-08-01T08:52:01;11.25;;;3.80;;
60292;SDS011;52402;52.670;6.750;2022-08-01T08:54:28;11.00;;;3.10;;
60292;SDS011;52402;52.670;6.750;2022-08-01T08:56:55;12.52;;;3.70;;
60292;SDS011;52402;52.670;6.750;2022-08-01T08:59:22;11.48;;;4.00;;
60292;SDS011;52402;52.670;6.750;2022-08-01T09:01:51;16.58;;;3.78;;
60292;SDS011;52402;52.670;6.750;2022-08-01T09:04:17;13.63;;;4.00;;
60292;SDS011;52402;52.670;6.750;2022-08-01T09:06:43;12.45;;;3.83;;
60292;SDS011;52402;52.670;6.750;2022-08-01T09:09:09;11.60;;;3.30;;
60292;SDS011;52402;52.670;6.750;2022-08-01T09:11:36;11.85;;;3.80;;
60292;SDS011;52402;52.670;6.750;2022-08-01T09:14:03;12.23;;;3.45;;
60292;SDS011;52402;52.670;6.750;2022-08-01T09:16:30;10.98;;;3.25;;
60292;SDS011;52402;52.670;6.750;2022-08-01T09:19:13;12.35;;;4.20;;
60292;SDS011;52402;52.670;6.750;2022-08-01T09:21:55;11.80;;;4.13;;
60292;SDS011;52402;52.670;6.750;2022-08-01T09:24:30;12.70;;;3.85;;
60292;SDS011;52402;52.670;6.750;2022-08-01T09:26:57;10.63;;;3.20;;
60292;SDS011;52402;52.670;6.750;2022-08-01T09:29:24;12.68;;;3.70;;
60292;SDS011;52402;52.670;6.750;2022-08-01T09:31:51;12.15;;;3.55;;
60292;SDS011;52402;52.670;6.750;2022-08-01T09:34:24;10.85;;;3.60;;
60292;SDS011;52402;52.670;6.750;2022-08-01T09:36:53;13.80;;;3.30;;
60292;SDS011;52402;52.670;6.750;2022-08-01T09:39:27;11.05;;;3.45;;
60292;SDS011;52402;52.670;6.750;2022-08-01T09:41:58;11.60;;;3.47;;
60292;SDS011;52402;52.670;6.750;2022-08-01T09:44:38;10.85;;;3.13;;
60292;SDS011;52402;52.670;6.750;2022-08-01T09:47:06;12.43;;;4.15;;
60292;SDS011;52402;52.670;6.750;2022-08-01T09:49:35;7.80;;;2.70;;
60292;SDS011;52402;52.670;6.750;2022-08-01T09:52:09;10.93;;;3.20;;
60292;SDS011;52402;52.670;6.750;2022-08-01T09:57:13;12.40;;;3.50;;
60292;SDS011;52402;52.670;6.750;2022-08-01T09:59:41;8.05;;;2.80;;
60292;SDS011;52402;52.670;6.750;2022-08-01T10:04:53;8.13;;;3.22;;
60292;SDS011;52402;52.670;6.750;2022-08-01T10:07:20;13.07;;;2.97;;
60292;SDS011;52402;52.670;6.750;2022-08-01T10:09:46;9.57;;;2.60;;
60292;SDS011;52402;52.670;6.750;2022-08-01T10:12:16;9.80;;;2.72;;
60292;SDS011;52402;52.670;6.750;2022-08-01T10:14:47;9.38;;;2.90;;
60292;SDS011;52402;52.670;6.750;2022-08-01T10:17:15;9.38;;;2.97;;
60292;SDS011;52402;52.670;6.750;2022-08-01T10:19:42;9.20;;;2.90;;
60292;SDS011;52402;52.670;6.750;2022-08-01T10:22:16;10.00;;;2.63;;
60292;SDS011;52402;52.670;6.750;2022-08-01T10:24:45;8.40;;;2.95;;
60292;SDS011;52402;52.670;6.750;2022-08-01T10:27:13;8.85;;;2.70;;
60292;SDS011;52402;52.670;6.750;2022-08-01T10:29:57;9.77;;;2.70;;
60292;SDS011;52402;52.670;6.750;2022-08-01T10:32:33;9.38;;;2.70;;
60292;SDS011;52402;52.670;6.750;2022-08-01T10:35:00;11.68;;;3.20;;
60292;SDS011;52402;52.670;6.750;2022-08-01T10:37:27;10.00;;;2.83;;
60292;SDS011;52402;52.670;6.750;2022-08-01T10:39:53;8.60;;;2.70;;
60292;SDS011;52402;52.670;6.750;2022-08-01T10:42:20;8.23;;;3.13;;
60292;SDS011;52402;52.670;6.750;2022-08-01T10:44:46;8.38;;;2.88;;
60292;SDS011;52402;52.670;6.750;2022-08-01T10:47:13;10.73;;;3.05;;
60292;SDS011;52402;52.670;6.750;2022-08-01T10:49:45;11.93;;;3.13;;
60292;SDS011;52402;52.670;6.750;2022-08-01T10:52:15;7.13;;;2.40;;
60292;SDS011;52402;52.670;6.750;2022-08-01T10:54:44;7.72;;;2.75;;
60292;SDS011;52402;52.670;6.750;2022-08-01T10:57:10;8.43;;;2.65;;
60292;SDS011;52402;52.670;6.750;2022-08-01T10:59:47;9.77;;;2.67;;
60292;SDS011;52402;52.670;6.750;2022-08-01T11:02:30;9.50;;;3.03;;
60292;SDS011;52402;52.670;6.750;2022-08-01T11:05:02;9.65;;;3.20;;
60292;SDS011;52402;52.670;6.750;2022-08-01T11:07:39;10.95;;;2.45;;
60292;SDS011;52402;52.670;6.750;2022-08-01T11:10:31;8.20;;;2.33;;
60292;SDS011;52402;52.670;6.750;2022-08-01T11:12:59;7.80;;;2.30;;
60292;SDS011;52402;52.670;6.750;2022-08-01T11:15:27;7.90;;;2.40;;
60292;SDS011;52402;52.670;6.750;2022-08-01T11:17:54;7.10;;;2.60;;
60292;SDS011;52402;52.670;6.750;2022-08-01T11:20:24;7.75;;;2.50;;
60292;SDS011;52402;52.670;6.750;2022-08-01T11:25:24;8.07;;;2.78;;
60292;SDS011;52402;52.670;6.750;2022-08-01T11:33:18;7.53;;;2.58;;
60292;SDS011;52402;52.670;6.750;2022-08-01T11:38:42;6.70;;;2.28;;
60292;SDS011;52402;52.670;6.750;2022-08-01T11:46:57;7.05;;;2.40;;
60292;SDS011;52402;52.670;6.750;2022-08-01T11:54:32;10.38;;;2.65;;
60292;SDS011;52402;52.670;6.750;2022-08-01T11:57:06;5.85;;;1.83;;
60292;SDS011;52402;52.670;6.750;2022-08-01T11:59:43;8.07;;;2.33;;
60292;SDS011;52402;52.670;6.750;2022-08-01T12:07:33;8.10;;;2.20;;
60292;SDS011;52402;52.670;6.750;2022-08-01T12:10:02;8.05;;;2.53;;
60292;SDS011;52402;52.670;6.750;2022-08-01T12:12:32;6.53;;;1.90;;
60292;SDS011;52402;52.670;6.750;2022-08-01T12:15:00;7.95;;;2.30;;
60292;SDS011;52402;52.670;6.750;2022-08-01T12:17:28;7.22;;;1.80;;
60292;SDS011;52402;52.670;6.750;2022-08-01T12:19:58;5.22;;;1.75;;
60292;SDS011;52402;52.670;6.750;2022-08-01T12:22:24;7.32;;;2.25;;
60292;SDS011;52402;52.670;6.750;2022-08-01T12:24:50;7.15;;;1.98;;
60292;SDS011;52402;52.670;6.750;2022-08-01T12:27:27;7.10;;;2.03;;
60292;SDS011;52402;52.670;6.750;2022-08-01T12:29:54;7.05;;;1.85;;
60292;SDS011;52402;52.670;6.750;2022-08-01T12:32:24;6.47;;;2.00;;
60292;SDS011;52402;52.670;6.750;2022-08-01T12:37:27;7.20;;;2.00;;
60292;SDS011;52402;52.670;6.750;2022-08-01T12:39:53;7.07;;;2.00;;
60292;SDS011;52402;52.670;6.750;2022-08-01T12:42:19;5.80;;;2.00;;
60292;SDS011;52402;52.670;6.750;2022-08-01T12:44:47;6.72;;;2.20;;
60292;SDS011;52402;52.670;6.750;2022-08-01T12:47:16;7.60;;;2.20;;
60292;SDS011;52402;52.670;6.750;2022-08-01T12:49:44;9.45;;;2.22;;
60292;SDS011;52402;52.670;6.750;2022-08-01T12:52:10;7.97;;;2.65;;
60292;SDS011;52402;52.670;6.750;2022-08-01T12:57:25;6.05;;;1.73;;
60292;SDS011;52402;52.670;6.750;2022-08-01T13:00:04;7.65;;;1.90;;
60292;SDS011;52402;52.670;6.750;2022-08-01T13:02:31;7.90;;;2.28;;
60292;SDS011;52402;52.670;6.750;2022-08-01T13:04:58;8.38;;;2.00;;
60292;SDS011;52402;52.670;6.750;2022-08-01T13:07:34;6.78;;;1.90;;
60292;SDS011;52402;52.670;6.750;2022-08-01T13:10:00;6.68;;;1.88;;
60292;SDS011;52402;52.670;6.750;2022-08-01T13:12:26;5.93;;;1.92;;
60292;SDS011;52402;52.670;6.750;2022-08-01T13:14:52;6.10;;;1.90;;
60292;SDS011;52402;52.670;6.750;2022-08-01T13:17:50;6.03;;;1.80;;
60292;SDS011;52402;52.670;6.750;2022-08-01T13:20:09;6.35;;;1.92;;
60292;SDS011;52402;52.670;6.750;2022-08-01T13:22:45;8.80;;;2.10;;
60292;SDS011;52402;52.670;6.750;2022-08-01T13:25:15;6.22;;;2.17;;
60292;SDS011;52402;52.670;6.750;2022-08-01T13:27:41;5.65;;;1.98;;
60292;SDS011;52402;52.670;6.750;2022-08-01T13:30:25;8.73;;;2.78;;
60292;SDS011;52402;52.670;6.750;2022-08-01T13:33:00;6.03;;;1.83;;
60292;SDS011;52402;52.670;6.750;2022-08-01T13:35:26;6.07;;;1.60;;
60292;SDS011;52402;52.670;6.750;2022-08-01T13:37:52;5.75;;;1.90;;
60292;SDS011;52402;52.670;6.750;2022-08-01T13:40:24;6.68;;;2.00;;
60292;SDS011;52402;52.670;6.750;2022-08-01T13:42:53;5.47;;;2.08;;
60292;SDS011;52402;52.670;6.750;2022-08-01T13:45:20;6.72;;;1.83;;
60292;SDS011;52402;52.670;6.750;2022-08-01T13:47:46;7.13;;;2.15;;
60292;SDS011;52402;52.670;6.750;2022-08-01T13:50:12;4.72;;;1.70;;
60292;SDS011;52402;52.670;6.750;2022-08-01T13:52:40;6.05;;;1.90;;
60292;SDS011;52402;52.670;6.750;2022-08-01T13:55:06;5.70;;;1.90;;
60292;SDS011;52402;52.670;6.750;2022-08-01T13:57:32;4.45;;;1.95;;
60292;SDS011;52402;52.670;6.750;2022-08-01T13:59:57;4.30;;;1.58;;
60292;SDS011;52402;52.670;6.750;2022-08-01T14:02:26;7.40;;;1.88;;
60292;SDS011;52402;52.670;6.750;2022-08-01T14:04:52;7.85;;;1.80;;
60292;SDS011;52402;52.670;6.750;2022-08-01T14:07:20;5.93;;;1.70;;
60292;SDS011;52402;52.670;6.750;2022-08-01T14:09:46;6.45;;;1.70;;
60292;SDS011;52402;52.670;6.750;2022-08-01T14:12:14;6.60;;;2.03;;
60292;SDS011;52402;52.670;6.750;2022-08-01T14:14:40;6.75;;;2.10;;
60292;SDS011;52402;52.670;6.750;2022-08-01T14:17:06;7.22;;;1.90;;
60292;SDS011;52402;52.670;6.750;2022-08-01T14:19:31;7.95;;;1.92;;
60292;SDS011;52402;52.670;6.750;2022-08-01T14:21:57;8.45;;;2.20;;
60292;SDS011;52402;52.670;6.750;2022-08-01T14:24:23;7.40;;;1.85;;
60292;SDS011;52402;52.670;6.750;2022-08-01T14:26:49;7.05;;;1.90;;
60292;SDS011;52402;52.670;6.750;2022-08-01T14:29:14;7.70;;;2.10;;
60292;SDS011;52402;52.670;6.750;2022-08-01T14:31:40;5.97;;;2.33;;
60292;SDS011;52402;52.670;6.750;2022-08-01T14:34:06;6.03;;;1.88;;
60292;SDS011;52402;52.670;6.750;2022-08-01T14:36:31;5.85;;;1.83;;
60292;SDS011;52402;52.670;6.750;2022-08-01T14:38:58;6.72;;;2.22;;
60292;SDS011;52402;52.670;6.750;2022-08-01T14:41:24;5.80;;;1.90;;
60292;SDS011;52402;52.670;6.750;2022-08-01T14:43:52;6.93;;;1.92;;
60292;SDS011;52402;52.670;6.750;2022-08-01T14:46:18;5.10;;;1.80;;
60292;SDS011;52402;52.670;6.750;2022-08-01T14:48:43;7.80;;;2.13;;
60292;SDS011;52402;52.670;6.750;2022-08-01T14:51:09;5.45;;;1.83;;
60292;SDS011;52402;52.670;6.750;2022-08-01T14:53:35;5.97;;;2.03;;
60292;SDS011;52402;52.670;6.750;2022-08-01T14:56:04;8.02;;;1.98;;
60292;SDS011;52402;52.670;6.750;2022-08-01T15:00:57;7.78;;;1.90;;
60292;SDS011;52402;52.670;6.750;2022-08-01T15:03:22;6.25;;;2.00;;
60292;SDS011;52402;52.670;6.750;2022-08-01T15:05:48;5.05;;;1.80;;
60292;SDS011;52402;52.670;6.750;2022-08-01T15:08:14;7.25;;;1.95;;
60292;SDS011;52402;52.670;6.750;2022-08-01T15:10:40;6.10;;;2.17;;
60292;SDS011;52402;52.670;6.750;2022-08-01T15:13:05;6.22;;;1.95;;
60292;SDS011;52402;52.670;6.750;2022-08-01T15:15:31;7.35;;;2.17;;
60292;SDS011;52402;52.670;6.750;2022-08-01T15:17:57;7.22;;;1.85;;
60292;SDS011;52402;52.670;6.750;2022-08-01T15:20:23;6.32;;;2.00;;
60292;SDS011;52402;52.670;6.750;2022-08-01T15:22:49;6.65;;;2.10;;
60292;SDS011;52402;52.670;6.750;2022-08-01T15:25:15;6.55;;;2.35;;
60292;SDS011;52402;52.670;6.750;2022-08-01T15:27:40;5.80;;;1.98;;
60292;SDS011;52402;52.670;6.750;2022-08-01T15:30:06;5.32;;;1.77;;
60292;SDS011;52402;52.670;6.750;2022-08-01T15:32:32;7.07;;;1.80;;
60292;SDS011;52402;52.670;6.750;2022-08-01T15:34:58;6.60;;;1.95;;
60292;SDS011;52402;52.670;6.750;2022-08-01T15:37:23;6.28;;;1.88;;